Primera, Texas
Current Conditions -  °F | °C
As of 8:52 AM on Friday 24 Oct 2014 (Local Time) from KHRL Reporting Station
Clear Clear  
Wind Chill: 70°   Ceiling: Unl
Heat Index: 70°   Visibility: 9mi
Dew Point: 67°   Wind: 3mph
Humidity: 90%   Direction: 350°N
Pressure: 30.12"   Gusts: NA
Location:  26.2089°N, 97.6849°W
Report Text: KHRL 241352Z 35003KT 9SM CLR 21/19 A3012 RMK AO2 SLP198 T02110194
Loading
Personal Weather Stations






























Interactive Weather Map
Tropical Storm Tracking
New forecast layout! Learn more

10-Day Weather Forecast

Advertisements
Track Severe Weather on mobile